Brumowski Air Base LOXT

Flugplatz Daten

Name: Brumowski Air Base

Ident: LOXT

Lat: 48,31669998

Long: 16,11669922

Platzhöhe: 574 ft

IataCode:

City: Langenlebarn

Metar

2021/08/02 07:50
LOXT 020750Z 25016KT 40KM FEW030CU BKN300CI 20/13 Q1015 RMK WIND INFO EST/BKN

Taf

Gewünschte Webcam nicht vorhanden? Dann fügen Sie eine hinzu. Sie wird dann so schnell wie möglich freigeschaltet
Url: Title: